Date,TemperatureHighF,TemperatureAvgF,TemperatureLowF,DewpointHighF,DewpointAvgF,DewpointLowF,HumidityHigh,HumidityAvg,HumidityLow,PressureMaxIn,PressureMinIn,WindSpeedMaxMPH,WindSpeedAvgMPH,GustSpeedMaxMPH,PrecipitationSumIn
2013-10-1,75.8,65.2,52.0,53.9,41.9,26.1,79,48,17,29.95,29.56,19,5,21,0.00
2013-10-2,80.1,64.6,47.7,65.7,49.9,33.5,92,61,29,29.97,29.73,27,8,31,0.11
2013-10-3,61.2,55.9,53.5,59.2,54.5,52.1,98,95,90,29.87,29.75,23,8,23,0.20
2013-10-4,62.5,56.8,53.5,60.8,55.7,49.3,98,96,83,29.86,29.65,30,13,30,0.01
2013-10-5,54.3,43.8,36.7,49.3,38.1,33.9,91,80,69,29.76,29.70,31,8,31,0.00
2013-10-6,57.1,47.1,43.3,50.0,42.1,37.6,96,84,52,29.97,29.75,26,6,26,0.04
2013-10-7,73.3,54.5,39.0,48.4,42.6,36.8,93,68,34,30.01,29.89,13,3,13,0.00
2013-10-8,76.0,61.7,49.1,48.7,45.1,42.4,79,57,35,29.89,29.72,36,10,36,0.00
2013-10-9,78.6,63.7,51.1,51.6,49.0,46.3,85,61,37,29.94,29.84,22,7,26,0.00
2013-10-10,79.7,66.3,55.2,55.0,51.5,48.1,82,61,39,29.92,29.69,33,11,33,0.00
2013-10-11,74.2,62.1,49.0,58.9,51.9,42.1,86,70,39,29.74,29.44,40,15,40,0.00
2013-10-12,60.6,51.4,43.2,42.4,33.6,24.1,81,54,26,30.25,29.74,33,9,33,0.00
2013-10-13,64.5,48.4,31.1,38.5,31.8,28.1,90,57,30,30.44,30.25,17,3,17,0.00
2013-10-14,51.8,47.2,44.4,49.3,41.5,32.8,97,82,49,30.33,29.69,33,10,33,1.91
2013-10-15,53.8,47.1,42.5,53.0,45.5,40.4,97,94,90,29.98,29.61,28,10,28,0.12
2013-10-16,54.1,43.8,35.9,41.3,37.3,33.2,95,79,49,30.05,29.92,19,5,20,0.00
2013-10-17,53.9,40.4,31.4,43.7,36.1,29.9,95,85,63,30.02,29.86,26,4,26,0.01
2013-10-18,50.2,40.4,31.1,36.0,31.8,25.7,91,74,39,30.10,29.92,27,5,27,0.00
2013-10-19,51.4,42.0,31.7,40.6,33.9,28.8,95,75,53,29.93,29.78,30,7,30,0.00
2013-10-20,52.7,42.5,35.0,42.7,35.5,29.7,89,76,63,30.01,29.65,32,8,32,0.00
2013-10-21,47.6,38.4,31.9,32.6,29.7,26.9,89,72,47,30.05,29.96,22,5,22,0.00
2013-10-22,38.9,35.1,31.5,31.8,29.7,26.7,96,82,62,30.13,29.94,15,3,15,0.07
2013-10-23,38.7,34.3,30.1,33.9,30.0,25.9,95,84,65,30.22,30.08,17,4,17,0.04
2013-10-24,46.5,36.8,30.2,33.4,28.9,26.8,90,75,48,30.39,30.22,26,6,26,0.00
2013-10-25,61.5,42.0,24.8,41.7,33.5,22.9,94,74,47,30.39,29.94,34,8,34,0.00
2013-10-26,47.2,39.9,28.9,39.9,29.9,24.7,88,68,47,30.22,29.95,23,5,23,0.00
2013-10-27,60.4,40.9,27.3,38.2,31.1,24.1,89,70,40,30.10,29.83,26,6,26,0.00
2013-10-28,40.7,36.7,32.1,31.9,29.2,25.9,87,74,62,30.38,30.10,30,14,30,0.00
2013-10-29,42.8,38.0,33.2,41.3,35.2,26.6,97,90,68,30.33,30.05,25,9,25,0.14
2013-10-30,46.9,41.4,37.9,46.0,40.8,36.9,98,97,95,30.05,29.75,19,5,19,0.03
2013-10-31,43.0,38.6,34.2,39.4,36.4,33.2,97,92,84,29.75,29.49,14,5,17,0.00